Aeroporto :
LOGIN :

Iscrizione | Disclaimer

   EN    FR    IT 

 










Sommario :    VFR   VFR Marginale   IFR   IFR Intensivo   IFR Molto Intensivo
Visibilità : 
Base nubi : 
>= 8 km
>= 3000ft
5 / 8 km
1000 / 3000 ft
1500m / 5 km
500 / 1000 ft
800 / 1500m
200 / 500 ft
< 800m
< 200 ft
Simboli :   Temporali  Nebbia  Neve Forte  Precipitazioni Forti  Vento > 20 kt
SIGMETs :   Varie  Temporali  Ghiacco  Turbolenza  Onda orograficha  Ceneri Vulcaniche






- Altitudine del aeroporto : 495 ft
- Codice IATA : BUD


LHBP - Budapest Ferihegy

ULTIMO METAR :
  • 282208Z AUTO 33006KT 9999 FEW130/// 12/09 Q1020

METARs OBSOLETI :
  • 282130Z AUTO 34005KT 9999 SCT140/// 13/09 Q1020
  • 282100Z AUTO 34007KT 9999 FEW130/// 13/09 Q1020
  • 282030Z AUTO 33005KT 9999 FEW100/// 13/09 Q1020
  • 282000Z 34002KT CAVOK 15/09 Q1020 NOSIG
  • 281930Z 35004KT CAVOK 15/09 Q1020 NOSIG

TAF TAF LHBP
Valido dal 28 a 18 ore il 29 a 18 ore UTC


281715Z 2818/2918 33006KT CAVOK
TEMPO 2820/2908 VRB03KT
TEMPO 2911/2918 02010G25KT SHRA TSRA SCT040CB BKN070



MetMap, La meteo Aeronautica in un colpo d'occhio ! - Copyright ORBIFLY Dicembre 2007 - Disclaimer

ORBIFLY MET'MAP TEAM :

Programmazione e sviluppo : Alexandra Zaïnal
Concezione : Baudouin d'Aumeries
Aiuto per la programmazione : Marc-Olivier Méhu
Supporto tecnico e logistico : Manuel Goepfert
Aiuto per la traduzione : Arnaldo La Scala

Contatto : metmap@orbifly.com




FONTI E CREDITI :

   NOAA